Iraklion, Greece
Current Conditions -  °F | °C
As of 8:50 PM on Monday 24 Nov 2014 (Local Time) from LGIR Reporting Station
Broken Clouds Broken Clouds  
Wind Chill: 59°   Ceiling: 3000
Heat Index: 59°   Visibility: 6mi
Dew Point: 45°   Wind: 20mph
Humidity: 59%   Direction: 340°NNW
Pressure: 30.09"   Gusts: NA
Location:  35.32916°N, 25.13853°E
Report Text: LGIR 241750Z 34017KT 9999 FEW020 BKN030 15/07 Q1019 NOSIG
Loading
Personal Weather Stations






























Interactive Weather Map New forecast layout! Learn more

10-Day Weather Forecast

Advertisements
Track Severe Weather on mobile